Time;durP1;ratioP1;P1;durP2;ratioP2;P2;SDS_P1;SDS_P2;PMS_P1;PMS_P2;Temp;Humidity;BMP_temperature;BMP_pressure;BME280_temperature;BME280_humidity;BME280_pressure;Samples;Min_cycle;Max_cycle;Signal;HPM_P1;HPM_P2
2021/08/08 00:02:24;;;;;;;2.93;1.60;;;;;;;16.89;73.74;96048.47;5072722;28;20540;-68
2021/08/08 00:04:49;;;;;;;7.23;1.37;;;;;;;17.03;73.33;96041.22;5070033;28;20189;-68
2021/08/08 00:07:18;;;;;;;3.13;1.30;;;;;;;17.32;72.12;96041.50;5074656;28;20186;-68
2021/08/08 00:09:45;;;;;;;1.63;1.30;;;;;;;17.31;71.75;96050.47;5067749;28;20202;-69
2021/08/08 00:12:11;;;;;;;2.87;1.50;;;;;;;17.38;71.56;96039.78;5075989;28;20412;-69
2021/08/08 00:14:37;;;;;;;3.47;1.30;;;;;;;17.00;73.45;96045.13;5074368;28;20423;-69
2021/08/08 00:17:04;;;;;;;4.47;1.43;;;;;;;17.17;72.46;96050.63;5057826;28;20191;-69
2021/08/08 00:19:29;;;;;;;4.83;1.67;;;;;;;17.08;72.09;96045.84;5066705;28;20198;-69
2021/08/08 00:21:55;;;;;;;4.30;1.40;;;;;;;16.81;73.86;96062.00;5075586;28;21002;-69
2021/08/08 00:24:20;;;;;;;4.00;1.40;;;;;;;16.81;74.00;96064.63;5075308;28;20182;-68
2021/08/08 00:26:46;;;;;;;4.83;1.60;;;;;;;16.66;74.50;96065.78;5075601;28;20586;-68
2021/08/08 00:29:11;;;;;;;6.50;1.77;;;;;;;16.98;73.40;96068.34;5074617;28;20312;-69
2021/08/08 00:31:37;;;;;;;5.67;1.67;;;;;;;17.00;72.76;96058.38;5074948;28;20182;-68
2021/08/08 00:34:03;;;;;;;4.43;1.70;;;;;;;16.92;73.27;96063.91;5066901;28;20182;-69
2021/08/08 00:36:28;;;;;;;2.40;1.50;;;;;;;16.94;73.23;96067.16;5075051;28;20691;-69
2021/08/08 00:38:56;;;;;;;6.97;1.40;;;;;;;16.81;73.76;96069.94;5074409;28;20238;-69
2021/08/08 00:41:23;;;;;;;5.43;1.60;;;;;;;16.66;74.60;96068.44;5066581;28;20193;-68
2021/08/08 00:43:48;;;;;;;4.80;1.53;;;;;;;16.54;74.55;96063.06;5074495;28;20417;-68
2021/08/08 00:46:14;;;;;;;9.73;1.73;;;;;;;16.70;73.95;96061.69;5071728;28;20439;-68
2021/08/08 00:48:39;;;;;;;3.53;1.60;;;;;;;17.12;71.93;96069.00;5061367;28;20202;-67
2021/08/08 00:51:05;;;;;;;2.30;1.30;;;;;;;17.29;71.16;96069.19;5073166;28;20185;-67
2021/08/08 00:53:31;;;;;;;2.13;1.60;;;;;;;17.37;71.18;96075.25;5066224;28;20830;-68
2021/08/08 00:55:57;;;;;;;5.53;1.37;;;;;;;17.06;72.03;96080.50;5074613;28;20413;-69
2021/08/08 00:58:23;;;;;;;6.20;1.47;;;;;;;16.69;73.39;96080.44;5074158;28;20207;-68
2021/08/08 01:00:49;;;;;;;4.13;1.30;;;;;;;17.25;71.05;96076.00;5074886;28;20182;-68
2021/08/08 01:03:15;;;;;;;2.60;1.13;;;;;;;17.10;71.00;96080.84;5072872;28;20262;-68
2021/08/08 01:05:45;;;;;;;1.53;1.20;;;;;;;17.03;71.66;96083.56;5074844;28;20566;-68
2021/08/08 01:08:15;;;;;;;1.97;1.60;;;;;;;16.85;72.29;96079.84;5072299;28;20247;-69
2021/08/08 01:10:40;;;;;;;3.33;1.50;;;;;;;16.95;71.53;96083.88;5063384;28;20412;-69
2021/08/08 01:13:07;;;;;;;6.67;2.40;;;;;;;16.95;70.81;96092.59;5078926;28;20459;-69
2021/08/08 01:15:33;;;;;;;5.23;1.47;;;;;;;16.63;72.33;96090.06;5079289;28;20178;-69
2021/08/08 01:17:59;;;;;;;3.87;1.40;;;;;;;16.65;72.71;96098.56;5056438;28;20455;-66
2021/08/08 01:20:26;;;;;;;1.97;1.17;;;;;;;17.16;70.13;96085.25;5071239;28;20175;-69
2021/08/08 01:22:56;;;;;;;2.40;1.30;;;;;;;17.21;69.67;96088.03;5077515;28;20417;-68
2021/08/08 01:25:23;;;;;;;3.27;1.33;;;;;;;17.07;70.13;96095.34;5072345;28;20421;-67
2021/08/08 01:27:51;;;;;;;7.30;1.40;;;;;;;17.10;70.20;96099.38;5073932;28;21052;-69
2021/08/08 01:30:16;;;;;;;1.40;1.13;;;;;;;16.74;71.75;96107.03;5073445;28;20544;-68
2021/08/08 01:32:43;;;;;;;4.47;2.03;;;;;;;17.07;70.62;96105.94;5072707;28;20511;-67
2021/08/08 01:35:09;;;;;;;1.50;1.20;;;;;;;17.33;69.55;96107.44;5073784;28;20185;-67
2021/08/08 01:37:34;;;;;;;1.87;1.40;;;;;;;17.40;69.13;96112.66;5074348;28;20452;-69
2021/08/08 01:40:07;;;;;;;3.10;1.50;;;;;;;17.35;69.31;96115.16;5073633;28;20548;-69
2021/08/08 01:42:32;;;;;;;8.13;1.50;;;;;;;16.64;71.79;96117.31;5057547;28;20516;-69
2021/08/08 01:45:00;;;;;;;4.63;1.17;;;;;;;16.52;72.43;96125.13;5071064;28;20490;-69
2021/08/08 01:47:29;;;;;;;1.67;1.00;;;;;;;16.96;70.88;96123.34;5047388;28;20707;-67
2021/08/08 01:49:56;;;;;;;11.43;1.93;;;;;;;16.87;71.35;96114.03;5073184;28;20468;-68
2021/08/08 01:52:22;;;;;;;3.20;1.60;;;;;;;16.59;72.16;96120.59;5073720;28;20418;-69
2021/08/08 01:54:48;;;;;;;7.70;1.20;;;;;;;16.94;70.86;96120.09;5073947;28;20420;-71
2021/08/08 01:57:13;;;;;;;3.10;1.10;;;;;;;17.26;69.33;96105.91;5073476;28;20198;-68
2021/08/08 01:59:39;;;;;;;1.93;1.10;;;;;;;16.89;70.86;96117.25;5073421;28;20202;-69
2021/08/08 02:02:12;;;;;;;3.60;1.27;;;;;;;16.97;70.48;96113.53;5071938;28;20624;-69
2021/08/08 02:04:40;;;;;;;5.00;1.40;;;;;;;16.91;70.72;96117.06;5065916;28;20257;-67
2021/08/08 02:07:10;;;;;;;1.73;1.30;;;;;;;16.71;71.19;96120.69;5072910;28;20895;-68
2021/08/08 02:09:37;;;;;;;3.73;1.30;;;;;;;16.58;72.10;96124.28;5073176;28;20514;-66
2021/08/08 02:12:04;;;;;;;5.47;1.30;;;;;;;16.95;70.47;96112.97;5073172;28;20436;-68
2021/08/08 02:14:29;;;;;;;3.33;1.30;;;;;;;16.74;71.23;96125.53;5073450;28;20413;-69
2021/08/08 02:16:55;;;;;;;3.70;1.30;;;;;;;16.81;71.04;96125.47;5058308;28;20931;-68
2021/08/08 02:19:21;;;;;;;7.63;1.30;;;;;;;17.14;69.54;96135.78;5062731;28;20203;-68
2021/08/08 02:21:46;;;;;;;6.90;1.27;;;;;;;17.15;69.32;96125.97;5073384;28;20179;-67
2021/08/08 02:24:12;;;;;;;4.40;1.50;;;;;;;16.77;70.31;96132.22;5072914;28;20546;-69
2021/08/08 02:26:38;;;;;;;4.23;1.30;;;;;;;16.98;70.12;96134.50;5073456;28;20307;-69
2021/08/08 02:29:03;;;;;;;2.50;1.00;;;;;;;17.15;69.57;96133.91;5072780;28;20708;-68
2021/08/08 02:31:40;;;;;;;3.37;1.50;;;;;;;17.16;69.21;96138.19;5073245;28;20183;-68
2021/08/08 02:34:06;;;;;;;2.03;1.17;;;;;;;17.29;68.65;96135.41;5072575;28;20224;-69
2021/08/08 02:36:32;;;;;;;6.30;1.20;;;;;;;17.15;69.52;96136.56;5072940;28;20825;-68
2021/08/08 02:38:58;;;;;;;1.73;1.20;;;;;;;17.27;68.95;96140.09;5071170;28;20501;-69
2021/08/08 02:41:24;;;;;;;1.20;1.10;;;;;;;17.12;69.36;96147.63;5072452;28;20421;-68
2021/08/08 02:43:49;;;;;;;2.03;1.10;;;;;;;17.10;69.66;96150.47;5072667;28;20295;-69
2021/08/08 02:46:15;;;;;;;2.80;1.00;;;;;;;17.10;69.53;96147.03;5068374;28;20178;-69
2021/08/08 02:48:41;;;;;;;1.53;1.10;;;;;;;17.23;68.84;96138.94;5080963;28;20214;-68
2021/08/08 02:51:06;;;;;;;3.53;1.33;;;;;;;17.09;69.45;96142.75;5062751;28;20179;-69
2021/08/08 02:53:32;;;;;;;2.57;1.40;;;;;;;17.15;69.38;96142.69;5068601;28;20178;-69
2021/08/08 02:55:57;;;;;;;3.30;1.37;;;;;;;17.14;69.43;96143.72;5069225;28;20656;-68
2021/08/08 02:58:23;;;;;;;1.63;1.00;;;;;;;17.11;69.41;96153.94;5072800;28;20190;-68
2021/08/08 03:00:49;;;;;;;2.07;0.97;;;;;;;17.05;69.77;96155.63;5073053;28;20277;-69
2021/08/08 03:03:14;;;;;;;4.00;1.37;;;;;;;17.03;70.08;96160.31;5074960;28;20220;-69
2021/08/08 03:05:40;;;;;;;3.53;1.33;;;;;;;16.92;70.32;96164.44;5077829;28;20625;-68
2021/08/08 03:08:06;;;;;;;3.57;1.23;;;;;;;16.80;70.76;96176.78;5077583;28;20205;-68
2021/08/08 03:10:31;;;;;;;2.80;1.30;;;;;;;16.90;70.61;96177.09;5076652;28;20210;-68
2021/08/08 03:12:57;;;;;;;3.47;1.43;;;;;;;17.00;70.73;96181.91;5077983;28;20441;-68
2021/08/08 03:15:23;;;;;;;1.80;1.60;;;;;;;16.88;71.44;96185.25;5078158;28;20179;-67
2021/08/08 03:17:48;;;;;;;5.50;1.70;;;;;;;16.85;71.47;96196.25;5062238;28;20286;-69
2021/08/08 03:20:14;;;;;;;2.30;1.50;;;;;;;16.80;71.82;96195.28;5068267;28;20259;-68
2021/08/08 03:22:39;;;;;;;5.53;1.50;;;;;;;16.79;71.57;96197.16;5090259;28;20254;-69
2021/08/08 03:25:07;;;;;;;2.17;1.33;;;;;;;16.87;71.13;96196.84;5083248;28;20641;-69
2021/08/08 03:27:33;;;;;;;4.30;1.57;;;;;;;16.80;71.04;96193.47;5073061;28;20178;-68
2021/08/08 03:29:58;;;;;;;2.47;1.60;;;;;;;16.70;71.68;96198.41;5057849;28;20461;-67
2021/08/08 03:32:24;;;;;;;7.63;2.13;;;;;;;16.58;72.27;96206.25;5078311;28;20174;-67
2021/08/08 03:34:51;;;;;;;2.60;1.50;;;;;;;16.79;71.20;96206.91;5078447;28;20192;-68
2021/08/08 03:37:16;;;;;;;1.70;1.30;;;;;;;16.79;71.23;96210.38;5058019;28;20501;-68
2021/08/08 03:39:42;;;;;;;4.83;1.80;;;;;;;16.83;70.75;96203.59;5058271;28;20596;-68
2021/08/08 03:42:08;;;;;;;1.80;1.10;;;;;;;16.77;71.03;96206.31;5057890;28;20174;-68
2021/08/08 03:44:34;;;;;;;3.17;1.43;;;;;;;16.77;70.97;96204.47;5058260;28;20175;-68
2021/08/08 03:47:00;;;;;;;5.37;1.93;;;;;;;16.64;71.72;96223.09;5058470;28;20405;-67
2021/08/08 03:49:26;;;;;;;4.13;1.87;;;;;;;16.61;71.81;96226.16;5070976;28;20207;-69
2021/08/08 03:51:51;;;;;;;3.73;1.40;;;;;;;16.63;71.35;96218.84;5057995;28;20591;-67
2021/08/08 03:54:17;;;;;;;2.80;1.50;;;;;;;16.49;72.09;96223.41;5057998;28;20266;-68
2021/08/08 03:56:42;;;;;;;1.73;1.40;;;;;;;16.63;71.42;96221.47;5057940;28;20168;-68
2021/08/08 03:59:08;;;;;;;4.30;2.17;;;;;;;16.68;71.06;96229.59;5057354;28;20268;-68
2021/08/08 04:01:34;;;;;;;4.87;1.60;;;;;;;16.67;70.91;96225.31;5058256;28;20259;-68
2021/08/08 04:04:00;;;;;;;2.23;1.57;;;;;;;16.66;70.86;96224.50;5058088;28;20175;-68
2021/08/08 04:06:25;;;;;;;2.23;1.40;;;;;;;16.58;71.17;96228.22;5064383;28;20842;-68
2021/08/08 04:08:51;;;;;;;3.37;1.40;;;;;;;16.58;71.02;96230.06;5057571;28;20230;-68
2021/08/08 04:11:17;;;;;;;3.10;1.50;;;;;;;16.56;70.73;96240.03;5057958;28;20193;-68
2021/08/08 04:13:42;;;;;;;1.90;1.40;;;;;;;16.55;71.20;96243.69;5056902;28;20216;-68
2021/08/08 04:16:08;;;;;;;11.90;1.70;;;;;;;16.51;71.20;96250.44;5064990;28;20521;-68
2021/08/08 04:18:33;;;;;;;4.00;1.50;;;;;;;16.37;71.76;96252.34;5053520;28;20192;-66
2021/08/08 04:20:59;;;;;;;6.70;1.83;;;;;;;16.42;71.66;96261.28;5053607;28;20178;-66
2021/08/08 04:23:25;;;;;;;1.53;1.43;;;;;;;16.28;72.29;96257.06;5057772;28;20179;-66
2021/08/08 04:25:51;;;;;;;5.17;1.70;;;;;;;16.20;72.71;96266.06;5058427;28;20481;-67
2021/08/08 04:28:16;;;;;;;3.83;1.60;;;;;;;16.29;72.59;96266.63;5056883;28;20573;-68
2021/08/08 04:30:42;;;;;;;8.83;1.50;;;;;;;16.39;71.65;96261.69;5063959;28;20532;-68
2021/08/08 04:33:07;;;;;;;8.63;1.57;;;;;;;16.33;71.97;96262.56;5068457;28;20193;-69
2021/08/08 04:35:33;;;;;;;1.90;1.50;;;;;;;16.36;72.05;96267.44;5057648;28;20183;-69
2021/08/08 04:38:00;;;;;;;2.60;1.40;;;;;;;16.15;72.73;96270.34;5056108;28;20190;-68
2021/08/08 04:40:26;;;;;;;2.00;1.40;;;;;;;16.33;72.31;96277.59;5064784;28;20229;-67
2021/08/08 04:42:52;;;;;;;4.27;1.57;;;;;;;16.39;71.94;96277.56;5057211;28;20429;-68
2021/08/08 04:45:19;;;;;;;5.40;1.67;;;;;;;16.33;72.38;96267.00;5056226;28;20529;-68
2021/08/08 04:47:45;;;;;;;2.67;1.50;;;;;;;16.47;71.71;96273.06;5055800;28;20982;-67
2021/08/08 04:50:11;;;;;;;5.77;1.57;;;;;;;16.44;71.71;96266.38;5055997;28;20458;-67
2021/08/08 04:52:37;;;;;;;6.93;1.20;;;;;;;16.56;71.42;96277.88;5056084;28;20236;-68
2021/08/08 04:55:04;;;;;;;5.30;1.63;;;;;;;16.37;72.06;96279.63;5055361;28;20220;-66
2021/08/08 04:57:29;;;;;;;4.37;1.53;;;;;;;16.49;71.69;96281.59;5055563;28;20410;-67
2021/08/08 04:59:55;;;;;;;10.13;1.60;;;;;;;16.63;71.06;96284.97;5056177;28;20441;-68
2021/08/08 05:02:21;;;;;;;4.40;1.40;;;;;;;16.57;71.35;96279.47;5057883;28;20367;-68
2021/08/08 05:04:47;;;;;;;3.93;1.77;;;;;;;16.61;71.20;96271.97;5066987;28;20181;-67
2021/08/08 05:07:12;;;;;;;2.37;1.20;;;;;;;16.70;70.64;96273.31;5055896;28;20237;-66
2021/08/08 05:09:38;;;;;;;1.67;1.43;;;;;;;16.80;70.31;96272.03;5055546;28;20206;-68
2021/08/08 05:12:04;;;;;;;2.00;1.30;;;;;;;17.00;69.67;96270.09;5055615;28;20262;-67
2021/08/08 05:14:29;;;;;;;3.80;1.27;;;;;;;17.02;69.36;96265.34;5054070;28;20190;-68
2021/08/08 05:16:55;;;;;;;1.60;1.20;;;;;;;16.94;69.81;96264.81;5055878;28;20269;-68
2021/08/08 05:19:21;;;;;;;1.30;1.20;;;;;;;17.03;69.18;96271.47;5046620;28;20212;-68
2021/08/08 05:21:47;;;;;;;5.70;1.47;;;;;;;17.18;69.05;96279.09;5054243;28;20830;-68
2021/08/08 05:24:12;;;;;;;2.33;1.37;;;;;;;17.17;68.89;96272.16;5054694;28;20191;-67
2021/08/08 05:26:38;;;;;;;3.53;1.10;;;;;;;17.27;68.73;96282.28;5054736;28;20187;-67
2021/08/08 05:29:04;;;;;;;3.60;1.17;;;;;;;17.26;68.18;96284.13;5054796;28;20566;-69
2021/08/08 05:31:29;;;;;;;1.30;1.10;;;;;;;17.50;67.60;96286.97;5063001;28;20186;-68
2021/08/08 05:33:55;;;;;;;6.00;1.40;;;;;;;17.61;67.61;96299.47;5070401;28;20178;-68
2021/08/08 05:36:21;;;;;;;3.83;1.33;;;;;;;17.72;66.83;96294.47;5051302;28;20618;-68
2021/08/08 05:38:46;;;;;;;1.23;1.00;;;;;;;17.65;66.75;96300.63;5053625;28;20257;-68
2021/08/08 05:41:12;;;;;;;2.60;1.40;;;;;;;17.89;66.22;96305.28;5054448;28;20248;-68
2021/08/08 05:43:38;;;;;;;4.43;1.10;;;;;;;17.76;66.20;96311.56;5054253;28;20186;-66
2021/08/08 05:46:04;;;;;;;3.20;1.10;;;;;;;18.06;65.57;96308.19;5062308;28;20433;-67
2021/08/08 05:48:29;;;;;;;7.43;1.50;;;;;;;18.22;65.22;96307.59;5051956;28;20458;-68
2021/08/08 05:50:55;;;;;;;1.60;1.10;;;;;;;18.31;64.39;96307.28;5069042;28;20186;-68
2021/08/08 05:53:21;;;;;;;1.77;0.90;;;;;;;18.69;62.90;96306.16;5073734;28;20194;-68
2021/08/08 05:55:47;;;;;;;6.20;0.90;;;;;;;19.08;61.16;96309.28;5071924;28;20189;-68
2021/08/08 05:58:13;;;;;;;7.90;1.07;;;;;;;19.64;59.66;96298.34;5073336;28;20576;-67
2021/08/08 06:00:40;;;;;;;10.40;1.00;;;;;;;19.57;59.68;96313.59;5074050;28;20413;-69
2021/08/08 06:03:07;;;;;;;2.00;0.90;;;;;;;19.47;59.97;96309.69;5073430;28;20424;-67
2021/08/08 06:05:33;;;;;;;1.80;1.00;;;;;;;18.99;61.14;96302.72;5074955;28;20413;-67
2021/08/08 06:07:59;;;;;;;3.00;0.70;;;;;;;18.88;61.42;96299.78;5075100;28;20423;-69
2021/08/08 06:10:24;;;;;;;5.10;1.03;;;;;;;19.41;60.40;96293.84;5073351;28;20460;-67
2021/08/08 06:12:50;;;;;;;2.67;0.90;;;;;;;19.60;59.64;96303.31;5074534;28;20197;-68
2021/08/08 06:15:15;;;;;;;2.93;0.90;;;;;;;19.05;61.17;96301.78;5072500;28;20186;-67
2021/08/08 06:17:41;;;;;;;2.53;0.90;;;;;;;19.40;59.98;96308.16;5074410;28;20178;-67
2021/08/08 06:20:08;;;;;;;2.10;0.77;;;;;;;18.61;62.35;96303.84;5059811;28;20601;-68
2021/08/08 06:22:34;;;;;;;4.20;0.90;;;;;;;19.48;60.35;96302.50;5072492;28;20182;-68
2021/08/08 06:24:59;;;;;;;4.07;1.03;;;;;;;19.90;58.37;96302.38;5055703;28;20417;-69
2021/08/08 06:27:25;;;;;;;4.83;1.20;;;;;;;19.71;59.00;96301.69;5072890;28;20633;-67
2021/08/08 06:29:51;;;;;;;1.97;0.83;;;;;;;20.22;57.19;96309.97;5055966;28;20202;-68
2021/08/08 06:32:16;;;;;;;1.47;0.90;;;;;;;20.13;57.14;96310.56;5073829;28;20193;-67
2021/08/08 06:34:43;;;;;;;2.57;0.90;;;;;;;20.16;57.39;96307.44;5073147;28;20304;-68
2021/08/08 06:37:09;;;;;;;1.83;0.80;;;;;;;20.32;57.01;96313.88;5073638;28;20727;-68
2021/08/08 06:39:35;;;;;;;2.83;1.23;;;;;;;20.37;56.39;96319.28;5073541;28;20425;-68
2021/08/08 06:42:00;;;;;;;1.23;0.73;;;;;;;20.53;55.98;96320.38;5073833;28;20738;-68
2021/08/08 06:44:28;;;;;;;6.40;1.10;;;;;;;20.09;57.38;96316.34;5072926;28;20191;-67
2021/08/08 06:46:54;;;;;;;2.83;1.00;;;;;;;19.93;57.58;96323.19;5073515;28;20683;-69
2021/08/08 06:49:20;;;;;;;3.43;0.90;;;;;;;20.52;56.65;96327.53;5061642;28;20473;-68
2021/08/08 06:51:45;;;;;;;1.87;0.97;;;;;;;19.58;58.85;96321.34;5072331;28;20417;-68
2021/08/08 06:54:12;;;;;;;1.40;1.07;;;;;;;19.84;58.10;96323.75;5073178;28;20191;-68
2021/08/08 06:56:38;;;;;;;2.50;1.00;;;;;;;20.62;55.79;96324.28;5073550;28;20186;-67
2021/08/08 06:59:04;;;;;;;2.97;1.20;;;;;;;21.05;55.02;96319.47;5064299;28;20444;-68
2021/08/08 07:01:30;;;;;;;2.47;1.20;;;;;;;21.32;54.14;96319.63;5073087;28;20452;-67
2021/08/08 07:03:55;;;;;;;1.60;1.10;;;;;;;21.42;54.00;96336.84;5072487;28;20186;-69
2021/08/08 07:06:21;;;;;;;2.73;1.10;;;;;;;21.04;54.23;96335.69;5070506;28;20182;-69
2021/08/08 07:08:47;;;;;;;1.80;1.00;;;;;;;21.53;53.90;96337.78;5067324;28;20351;-69
2021/08/08 07:11:13;;;;;;;3.63;1.23;;;;;;;21.45;53.60;96341.66;5072879;28;20191;-68
2021/08/08 07:13:39;;;;;;;1.50;1.03;;;;;;;21.72;52.59;96335.69;5073226;28;20285;-68
2021/08/08 07:16:06;;;;;;;5.30;1.20;;;;;;;21.83;52.12;96334.78;5066480;28;20174;-69
2021/08/08 07:18:31;;;;;;;2.40;1.10;;;;;;;21.05;54.53;96342.59;5069436;28;20441;-68
2021/08/08 07:20:57;;;;;;;2.13;1.10;;;;;;;20.83;54.64;96343.31;5084219;28;20413;-69
2021/08/08 07:23:22;;;;;;;1.97;1.17;;;;;;;20.48;55.56;96349.56;5071602;28;20187;-68
2021/08/08 07:25:48;;;;;;;2.70;1.00;;;;;;;20.24;56.43;96347.75;5071989;28;20548;-69
2021/08/08 07:28:14;;;;;;;2.67;0.90;;;;;;;20.68;54.93;96336.63;5071793;28;20289;-66
2021/08/08 07:30:39;;;;;;;4.10;1.23;;;;;;;21.00;54.21;96348.66;5071701;28;20214;-69
2021/08/08 07:33:05;;;;;;;3.10;1.20;;;;;;;21.00;53.72;96346.81;5070639;28;20582;-73
2021/08/08 07:35:30;;;;;;;1.60;1.10;;;;;;;20.29;55.57;96352.38;5071152;28;20179;-68
2021/08/08 07:37:56;;;;;;;6.10;1.27;;;;;;;21.07;54.04;96353.84;5071535;28;20311;-69
2021/08/08 07:40:22;;;;;;;3.10;1.07;;;;;;;21.11;53.25;96352.31;5071624;28;20178;-68
2021/08/08 07:42:51;;;;;;;2.50;1.10;;;;;;;21.37;52.64;96360.72;5072160;28;20182;-69
2021/08/08 07:45:17;;;;;;;3.90;1.53;;;;;;;21.13;53.48;96355.53;5071143;28;20270;-66
2021/08/08 07:47:43;;;;;;;2.40;1.00;;;;;;;21.39;53.15;96353.31;5071671;28;20466;-68
2021/08/08 07:50:09;;;;;;;4.50;0.90;;;;;;;21.41;52.87;96356.53;5063183;28;20456;-67
2021/08/08 07:52:36;;;;;;;6.50;1.47;;;;;;;21.61;52.86;96367.53;5075631;28;20645;-67
2021/08/08 07:55:03;;;;;;;2.57;1.07;;;;;;;21.35;51.40;96365.47;5073925;28;20436;-69
2021/08/08 07:57:28;;;;;;;4.20;1.13;;;;;;;21.82;50.28;96362.50;5074312;28;20450;-67
2021/08/08 07:59:54;;;;;;;5.33;1.30;;;;;;;22.00;49.34;96361.41;5074089;28;20436;-69
2021/08/08 08:02:19;;;;;;;2.63;1.20;;;;;;;21.92;49.48;96349.31;5075042;28;20209;-69
2021/08/08 08:04:45;;;;;;;3.73;1.30;;;;;;;21.57;51.09;96349.59;5074998;28;20179;-67
2021/08/08 08:07:10;;;;;;;2.33;0.97;;;;;;;21.39;51.04;96346.09;5075499;28;20382;-68
2021/08/08 08:09:36;;;;;;;3.50;1.40;;;;;;;21.61;50.96;96362.19;5074521;28;20289;-68
2021/08/08 08:12:02;;;;;;;4.03;1.30;;;;;;;22.31;49.30;96377.00;5075219;28;20186;-69
2021/08/08 08:14:28;;;;;;;3.70;1.17;;;;;;;21.81;50.05;96371.53;5056781;28;20178;-67
2021/08/08 08:16:53;;;;;;;5.27;1.07;;;;;;;21.98;49.27;96374.22;5074896;28;20448;-69
2021/08/08 08:19:19;;;;;;;1.50;1.03;;;;;;;21.16;51.31;96371.06;5052700;28;20710;-68
2021/08/08 08:21:44;;;;;;;5.00;1.17;;;;;;;21.85;50.26;96364.69;5074932;28;20189;-68
2021/08/08 08:24:11;;;;;;;3.67;1.33;;;;;;;21.89;49.30;96373.81;5074324;28;20676;-67
2021/08/08 08:26:36;;;;;;;4.07;1.00;;;;;;;22.02;48.15;96379.84;5074385;28;20197;-68
2021/08/08 08:29:02;;;;;;;2.53;1.10;;;;;;;22.36;47.33;96369.91;5056210;28;20462;-68
2021/08/08 08:31:28;;;;;;;1.30;1.00;;;;;;;22.06;48.30;96383.63;5056591;28;20733;-67
2021/08/08 08:33:53;;;;;;;2.87;1.20;;;;;;;22.94;46.85;96376.66;5074239;28;20170;-68
2021/08/08 08:36:19;;;;;;;1.90;0.93;;;;;;;23.33;44.97;96378.41;5074064;28;20182;-68
2021/08/08 08:38:45;;;;;;;3.17;1.07;;;;;;;23.24;45.51;96375.38;5072764;28;20726;-68
2021/08/08 08:41:16;;;;;;;2.27;0.90;;;;;;;24.11;43.93;96379.75;5073528;28;20557;-68
2021/08/08 08:43:45;;;;;;;2.23;0.93;;;;;;;23.46;44.00;96380.66;5072667;28;20443;-69
2021/08/08 08:46:11;;;;;;;5.13;1.30;;;;;;;22.33;46.51;96377.56;5073400;28;20440;-68
2021/08/08 08:48:38;;;;;;;2.27;1.33;;;;;;;22.65;46.35;96379.59;5069166;28;20447;-68
2021/08/08 08:51:05;;;;;;;1.90;1.40;;;;;;;22.62;45.78;96385.41;5067022;28;20511;-69
2021/08/08 08:53:31;;;;;;;3.53;1.10;;;;;;;21.94;47.74;96387.19;5071657;28;20920;-69
2021/08/08 08:56:01;;;;;;;3.17;1.37;;;;;;;21.61;48.95;96385.41;5072995;28;20416;-69
2021/08/08 08:58:26;;;;;;;3.37;1.27;;;;;;;22.04;48.10;96386.53;5073218;28;21070;-69
2021/08/08 09:00:52;;;;;;;3.30;1.30;;;;;;;22.39;46.70;96396.06;5071841;28;20433;-67
2021/08/08 09:03:18;;;;;;;3.73;1.40;;;;;;;21.84;48.41;96383.59;5072872;28;20288;-66
2021/08/08 09:05:43;;;;;;;2.10;1.33;;;;;;;22.59;46.95;96380.56;5073327;28;20421;-68
2021/08/08 09:08:09;;;;;;;3.83;1.30;;;;;;;22.21;46.74;96380.38;5072897;28;20213;-66
2021/08/08 09:10:36;;;;;;;2.63;1.43;;;;;;;22.77;46.25;96387.44;5073503;28;20563;-67
2021/08/08 09:13:04;;;;;;;2.43;1.20;;;;;;;23.32;46.05;96382.94;5064553;28;20237;-68
2021/08/08 09:15:36;;;;;;;3.07;1.50;;;;;;;23.87;44.11;96383.63;5071034;28;20417;-68
2021/08/08 09:18:20;;;;;;;3.50;1.50;;;;;;;24.38;42.35;96377.75;5071363;28;20908;-67
2021/08/08 09:20:47;;;;;;;3.30;3.00;;;;;;;23.51;43.67;96377.22;5060530;28;20420;-67
2021/08/08 09:23:12;;;;;;;2.40;1.10;;;;;;;24.35;41.77;96385.53;5072965;28;20434;-68
2021/08/08 09:25:57;;;;;;;3.23;1.20;;;;;;;24.16;41.04;96380.59;5072452;28;20927;-67
2021/08/08 09:28:30;;;;;;;4.00;1.23;;;;;;;23.83;41.15;96381.69;5072591;28;20305;-68
2021/08/08 09:30:56;;;;;;;2.70;1.17;;;;;;;24.41;41.10;96381.78;5072268;28;20809;-68
2021/08/08 09:33:23;;;;;;;1.30;0.80;;;;;;;24.41;40.95;96381.00;5070492;28;20454;-68
2021/08/08 09:35:53;;;;;;;2.23;1.47;;;;;;;24.74;39.98;96378.97;5072216;28;20421;-68
2021/08/08 09:38:20;;;;;;;2.10;1.17;;;;;;;24.92;38.52;96381.19;5071604;28;20530;-69
2021/08/08 09:41:00;;;;;;;3.93;1.17;;;;;;;24.55;39.03;96384.81;5071607;28;20439;-68
2021/08/08 09:43:27;;;;;;;2.30;1.30;;;;;;;24.83;39.46;96388.09;5070885;28;20444;-68
2021/08/08 09:45:53;;;;;;;2.20;1.10;;;;;;;24.62;39.58;96393.38;5071798;28;20420;-68
2021/08/08 09:48:19;;;;;;;4.53;1.40;;;;;;;24.81;39.30;96387.59;5070229;28;20440;-67
2021/08/08 09:50:47;;;;;;;3.10;1.60;;;;;;;25.22;38.09;96397.59;5061270;28;20202;-68
2021/08/08 09:53:18;;;;;;;1.70;1.00;;;;;;;24.28;38.37;96399.13;5069537;28;20429;-68
2021/08/08 09:55:43;;;;;;;1.50;0.80;;;;;;;24.51;38.71;96402.44;5065234;28;20425;-68
2021/08/08 09:58:22;;;;;;;1.43;0.93;;;;;;;23.87;40.03;96402.34;5072226;28;20433;-68
2021/08/08 10:00:58;;;;;;;3.57;2.17;;;;;;;23.52;41.00;96400.22;5065652;28;20178;-68
2021/08/08 10:03:23;;;;;;;2.27;1.13;;;;;;;23.66;41.45;96412.09;5069685;28;20436;-68
2021/08/08 10:05:53;;;;;;;1.47;1.03;;;;;;;23.61;41.20;96406.69;5071957;28;20421;-69
2021/08/08 10:08:21;;;;;;;4.40;1.67;;;;;;;23.45;41.24;96406.56;5071622;28;20206;-67
2021/08/08 10:10:49;;;;;;;2.60;1.23;;;;;;;23.78;41.03;96402.03;5071382;28;20456;-68
2021/08/08 10:13:52;;;;;;;4.20;1.53;;;;;;;23.73;40.08;96399.31;5071197;28;20420;-68
2021/08/08 10:16:19;;;;;;;1.83;1.20;;;;;;;24.21;39.36;96399.38;5071547;28;20489;-67
2021/08/08 10:19:01;;;;;;;6.73;1.33;;;;;;;23.58;41.01;96408.03;5061331;28;20450;-69
2021/08/08 10:21:27;;;;;;;4.60;1.20;;;;;;;23.25;40.31;96407.19;5086767;28;20424;-68
2021/08/08 10:23:57;;;;;;;2.17;1.10;;;;;;;23.89;39.56;96397.53;5070193;28;20941;-68
2021/08/08 10:26:23;;;;;;;2.33;1.13;;;;;;;23.54;39.38;96390.06;5069573;28;20486;-68
2021/08/08 10:28:51;;;;;;;3.50;1.30;;;;;;;22.73;40.88;96411.19;5071281;28;20456;-68
2021/08/08 10:31:17;;;;;;;2.80;1.20;;;;;;;23.16;40.28;96406.00;5069729;28;20193;-68
2021/08/08 10:33:44;;;;;;;3.20;1.23;;;;;;;23.64;39.99;96390.16;5069606;28;20505;-68
2021/08/08 10:36:36;;;;;;;2.20;1.30;;;;;;;22.88;41.70;96404.41;5071272;28;20416;-67
2021/08/08 10:39:13;;;;;;;4.37;1.40;;;;;;;23.17;41.29;96396.94;5059271;28;21006;-68
2021/08/08 10:41:41;;;;;;;2.57;1.20;;;;;;;22.59;42.10;96413.44;5063233;28;20969;-67
2021/08/08 10:44:09;;;;;;;2.17;1.17;;;;;;;23.41;40.76;96402.00;5054232;28;20440;-66
2021/08/08 10:46:48;;;;;;;2.97;1.37;;;;;;;23.08;41.09;96398.47;5071177;28;20439;-67
2021/08/08 10:49:25;;;;;;;2.67;1.30;;;;;;;23.35;41.02;96406.50;5047223;28;20492;-68
2021/08/08 10:52:04;;;;;;;2.43;1.03;;;;;;;22.77;41.92;96404.28;5070955;28;20420;-69
2021/08/08 10:54:40;;;;;;;5.80;1.60;;;;;;;23.67;41.30;96400.34;5055143;28;20455;-69
2021/08/08 10:57:10;;;;;;;1.70;1.13;;;;;;;24.38;39.26;96396.50;5062289;28;20935;-68
2021/08/08 10:59:45;;;;;;;2.80;1.20;;;;;;;24.38;38.29;96399.19;5070568;28;20444;-71
2021/08/08 11:02:14;;;;;;;6.40;2.27;;;;;;;25.07;37.37;96393.81;5071217;28;20510;-67
2021/08/08 11:04:40;;;;;;;2.30;1.30;;;;;;;25.70;35.97;96395.47;5071521;28;20829;-68
2021/08/08 11:07:06;;;;;;;2.17;1.23;;;;;;;26.34;34.76;96392.41;5069676;28;20448;-69
2021/08/08 11:09:33;;;;;;;3.10;1.20;;;;;;;25.53;36.00;96401.13;5058154;28;20213;-67
2021/08/08 11:11:59;;;;;;;2.23;1.20;;;;;;;25.64;35.31;96398.41;5066997;28;20425;-67
2021/08/08 11:14:26;;;;;;;1.93;1.20;;;;;;;25.01;36.32;96402.91;5066020;28;20417;-67
2021/08/08 11:17:01;;;;;;;2.20;1.60;;;;;;;26.28;34.88;96399.66;5065801;28;20435;-68
2021/08/08 11:19:38;;;;;;;2.13;0.93;;;;;;;26.20;33.74;96392.19;5056665;28;20451;-69
2021/08/08 11:22:09;;;;;;;2.23;1.00;;;;;;;24.86;36.31;96400.97;5070453;28;20838;-67
2021/08/08 11:24:34;;;;;;;2.63;1.10;;;;;;;25.04;35.76;96394.31;5064988;28;20425;-65
2021/08/08 11:27:00;;;;;;;1.47;1.10;;;;;;;24.98;35.81;96401.53;5066012;28;20440;-67
2021/08/08 11:29:26;;;;;;;2.70;1.40;;;;;;;25.42;35.81;96399.50;5074531;28;20752;-68
2021/08/08 11:31:53;;;;;;;1.73;1.00;;;;;;;24.66;36.51;96399.00;5074905;28;20222;-68
2021/08/08 11:34:23;;;;;;;1.57;1.47;;;;;;;25.23;35.90;96397.31;5072551;28;20760;-69